Time;durP1;ratioP1;P1;durP2;ratioP2;P2;SDS_P1;SDS_P2;PMS_P1;PMS_P2;Temp;Humidity;BMP_temperature;BMP_pressure;BME280_temperature;BME280_humidity;BME280_pressure;Samples;Min_cycle;Max_cycle;Signal;HPM_P1;HPM_P2
2022/09/03 00:01:24;;;;;;;2.40;0.90;;;20.70;81.40;;;;;;5011914;28;20033;-74
2022/09/03 00:04:02;;;;;;;2.80;1.20;;;20.70;81.40;;;;;;5011053;28;20494;-74
2022/09/03 00:06:37;;;;;;;1.25;1.00;;;20.70;81.80;;;;;;5013188;28;20026;-74
2022/09/03 00:09:06;;;;;;;2.30;0.93;;;20.60;81.40;;;;;;5012043;28;20026;-73
2022/09/03 00:11:44;;;;;;;2.47;1.20;;;20.60;81.40;;;;;;5013145;28;20036;-74
2022/09/03 00:14:23;;;;;;;3.28;0.93;;;20.60;82.10;;;;;;5011744;28;20033;-73
2022/09/03 00:17:08;;;;;;;3.00;1.40;;;20.60;81.80;;;;;;5010768;28;20058;-74
2022/09/03 00:19:45;;;;;;;3.90;1.10;;;20.60;82.00;;;;;;5012405;28;20056;-77
2022/09/03 00:22:23;;;;;;;1.92;0.90;;;20.60;82.80;;;;;;5012804;28;20042;-73
2022/09/03 00:24:50;;;;;;;5.25;1.10;;;20.60;82.80;;;;;;5011047;28;20030;-73
2022/09/03 00:27:20;;;;;;;0.95;0.82;;;20.60;82.90;;;;;;5012857;28;20018;-73
2022/09/03 00:29:51;;;;;;;1.25;0.80;;;20.60;83.00;;;;;;5012095;28;20040;-74
2022/09/03 00:32:26;;;;;;;3.10;0.70;;;20.60;83.30;;;;;;5011658;28;20041;-73
2022/09/03 00:35:04;;;;;;;1.42;1.00;;;20.50;83.90;;;;;;5010762;28;20037;-73
2022/09/03 00:37:31;;;;;;;1.98;1.00;;;20.50;84.00;;;;;;5011240;28;20120;-73
2022/09/03 00:39:57;;;;;;;2.92;1.30;;;20.40;83.70;;;;;;5011861;28;20100;-73
2022/09/03 00:42:47;;;;;;;1.50;0.90;;;20.40;84.40;;;;;;5011135;28;20173;-73
2022/09/03 00:45:25;;;;;;;4.20;1.13;;;20.40;84.90;;;;;;5012216;28;20033;-73
2022/09/03 00:48:01;;;;;;;3.65;0.90;;;20.30;84.70;;;;;;5011908;28;20026;-73
2022/09/03 00:50:59;;;;;;;4.20;1.05;;;20.30;84.90;;;;;;5011439;28;20030;-73
2022/09/03 00:53:38;;;;;;;3.15;1.40;;;20.30;84.90;;;;;;5011619;28;20030;-73
2022/09/03 00:56:39;;;;;;;2.25;1.10;;;20.40;84.70;;;;;;5011501;28;20026;-73
2022/09/03 00:59:30;;;;;;;1.45;1.10;;;20.30;84.80;;;;;;5011166;28;20124;-73
2022/09/03 01:02:16;;;;;;;1.20;0.90;;;20.30;85.10;;;;;;5011672;28;20038;-73
2022/09/03 01:05:19;;;;;;;2.17;0.98;;;20.30;85.20;;;;;;5011806;28;20041;-73
2022/09/03 01:07:57;;;;;;;3.67;1.20;;;20.20;85.30;;;;;;5011886;28;20062;-73
2022/09/03 01:10:44;;;;;;;2.88;1.00;;;20.20;85.80;;;;;;5014975;28;20026;-72
2022/09/03 01:13:37;;;;;;;1.52;1.17;;;20.20;86.30;;;;;;5015129;28;20168;-73
2022/09/03 01:16:21;;;;;;;3.10;1.35;;;20.20;86.70;;;;;;5013983;28;20049;-73
2022/09/03 01:19:24;;;;;;;1.88;1.10;;;20.20;86.70;;;;;;5014141;28;20029;-73
2022/09/03 01:22:06;;;;;;;2.28;1.02;;;20.20;87.10;;;;;;5015265;28;20033;-73
2022/09/03 01:25:06;;;;;;;1.67;0.90;;;20.10;87.40;;;;;;5014921;28;20356;-73
2022/09/03 01:27:45;;;;;;;1.85;1.05;;;20.10;87.50;;;;;;5005485;28;20034;-73
2022/09/03 01:30:17;;;;;;;1.65;1.13;;;20.10;87.80;;;;;;4996452;28;20023;-73
2022/09/03 01:32:46;;;;;;;1.90;1.10;;;20.00;87.80;;;;;;4995867;28;20030;-74
2022/09/03 01:35:31;;;;;;;2.58;1.35;;;19.90;88.10;;;;;;4995109;28;20109;-73
2022/09/03 01:38:09;;;;;;;2.90;1.10;;;19.90;88.30;;;;;;4995460;28;20030;-73
2022/09/03 01:42:12;;;;;;;2.90;1.40;;;19.90;89.90;;;;;;4994836;28;20048;-72
2022/09/03 01:44:15;;;;;;;3.72;1.23;;;19.90;90.10;;;;;;4995001;28;20395;-73
2022/09/03 01:46:45;;;;;;;3.60;1.40;;;19.90;90.60;;;;;;4960224;28;20090;-75
2022/09/03 01:49:49;;;;;;;1.67;1.20;;;20.00;90.80;;;;;;4995936;28;20456;-73
2022/09/03 01:52:25;;;;;;;2.95;1.30;;;20.00;91.30;;;;;;4992665;28;20047;-73
2022/09/03 01:55:02;;;;;;;1.58;1.00;;;19.90;91.10;;;;;;4993942;28;20030;-73
2022/09/03 01:57:44;;;;;;;2.97;1.35;;;19.90;91.50;;;;;;4995891;28;20026;-73
2022/09/03 02:00:12;;;;;;;4.13;1.30;;;19.90;91.70;;;;;;4994673;28;20026;-73
2022/09/03 02:02:40;;;;;;;2.92;1.48;;;19.90;92.00;;;;;;4994354;28;20034;-73
2022/09/03 02:05:11;;;;;;;4.53;1.20;;;19.90;92.40;;;;;;4994926;28;20412;-73
2022/09/03 02:07:45;;;;;;;2.00;1.60;;;19.90;92.90;;;;;;4994345;28;20113;-73
2022/09/03 02:10:17;;;;;;;4.25;1.60;;;19.90;93.60;;;;;;4994205;28;20029;-73
2022/09/03 02:12:51;;;;;;;3.65;1.98;;;19.90;94.10;;;;;;4993745;28;20434;-75
2022/09/03 02:15:20;;;;;;;2.67;1.60;;;19.90;94.80;;;;;;4993924;28;20052;-73
2022/09/03 02:17:48;;;;;;;2.25;1.48;;;19.90;95.40;;;;;;4994695;28;20357;-73
2022/09/03 02:20:24;;;;;;;1.83;1.42;;;19.90;95.70;;;;;;4992872;28;20033;-73
2022/09/03 02:22:53;;;;;;;3.58;1.20;;;19.90;96.30;;;;;;4993483;28;20068;-73
2022/09/03 02:25:22;;;;;;;3.28;1.50;;;19.90;96.50;;;;;;4993984;28;20057;-72
2022/09/03 02:27:49;;;;;;;2.17;1.60;;;19.90;96.80;;;;;;4994575;28;20072;-73
2022/09/03 02:30:16;;;;;;;2.17;1.60;;;19.90;97.20;;;;;;4995228;28;20054;-72
2022/09/03 02:32:41;;;;;;;3.22;1.30;;;19.90;97.60;;;;;;4994824;28;20472;-75
2022/09/03 02:35:08;;;;;;;2.13;1.35;;;19.90;97.80;;;;;;4993125;28;20037;-72
2022/09/03 02:37:33;;;;;;;5.25;1.60;;;19.90;98.00;;;;;;4994729;28;20105;-72
2022/09/03 02:39:59;;;;;;;2.40;1.70;;;19.90;98.40;;;;;;4992901;28;20530;-72
2022/09/03 02:42:25;;;;;;;2.88;1.50;;;19.90;98.60;;;;;;4993644;28;20030;-72
2022/09/03 02:45:06;;;;;;;2.67;1.50;;;19.90;98.90;;;;;;4992818;28;20471;-73
2022/09/03 02:47:33;;;;;;;2.47;1.50;;;19.90;99.10;;;;;;4995154;28;20042;-73
2022/09/03 02:49:58;;;;;;;1.77;1.50;;;19.90;99.20;;;;;;4992916;28;20029;-73
2022/09/03 02:52:24;;;;;;;3.83;1.60;;;20.00;99.70;;;;;;4993474;28;20022;-73
2022/09/03 02:54:49;;;;;;;1.90;1.50;;;20.00;99.60;;;;;;4993682;28;20092;-73
2022/09/03 02:57:16;;;;;;;5.55;3.90;;;20.00;99.90;;;;;;4993418;28;20032;-73
2022/09/03 02:59:45;;;;;;;2.17;1.85;;;19.90;99.80;;;;;;4994455;28;20463;-73
2022/09/03 03:02:12;;;;;;;3.17;1.65;;;20.00;99.90;;;;;;4993008;28;20040;-74
2022/09/03 03:04:39;;;;;;;2.33;1.85;;;20.00;99.90;;;;;;4993166;28;20026;-73
2022/09/03 03:07:05;;;;;;;2.58;1.40;;;20.00;99.90;;;;;;4992661;28;20275;-73
2022/09/03 03:09:31;;;;;;;2.47;1.50;;;20.10;99.90;;;;;;4993267;28;20053;-73
2022/09/03 03:11:57;;;;;;;1.55;1.25;;;20.00;99.90;;;;;;4992465;28;20072;-73
2022/09/03 03:14:22;;;;;;;2.97;1.38;;;20.00;99.90;;;;;;4994243;28;20058;-73
2022/09/03 03:16:50;;;;;;;2.30;1.33;;;20.10;99.90;;;;;;4993699;28;20053;-74
2022/09/03 03:19:16;;;;;;;2.28;1.60;;;20.10;99.90;;;;;;4993076;28;20113;-73
2022/09/03 03:21:42;;;;;;;2.85;1.98;;;20.10;99.90;;;;;;4994141;28;20475;-73
2022/09/03 03:24:07;;;;;;;2.72;1.60;;;20.10;99.90;;;;;;4993233;28;20037;-73
2022/09/03 03:26:34;;;;;;;3.17;1.23;;;20.00;99.90;;;;;;4994242;28;20041;-73
2022/09/03 03:29:03;;;;;;;1.88;1.52;;;20.00;99.90;;;;;;4992183;28;20050;-73
2022/09/03 03:31:29;;;;;;;2.22;1.63;;;20.00;99.90;;;;;;4992146;28;20030;-73
2022/09/03 03:33:57;;;;;;;3.05;1.50;;;20.00;99.90;;;;;;4992160;28;20551;-73
2022/09/03 03:36:25;;;;;;;3.00;1.50;;;20.00;99.90;;;;;;4992895;28;20184;-72
2022/09/03 03:38:56;;;;;;;3.33;1.60;;;19.90;99.90;;;;;;4992010;28;20050;-74
2022/09/03 03:41:30;;;;;;;3.75;1.35;;;20.00;99.90;;;;;;4992548;28;20030;-73
2022/09/03 03:43:57;;;;;;;1.63;1.40;;;20.00;99.90;;;;;;4991885;28;20089;-73
2022/09/03 03:46:24;;;;;;;4.78;1.50;;;20.00;99.90;;;;;;4992469;28;20045;-73
2022/09/03 03:48:52;;;;;;;1.60;1.50;;;20.00;99.90;;;;;;4991808;28;20046;-76
2022/09/03 03:51:18;;;;;;;2.63;1.63;;;20.00;99.90;;;;;;4992253;28;20073;-73
2022/09/03 03:53:45;;;;;;;2.60;1.58;;;20.00;99.90;;;;;;4992154;28;20030;-73
2022/09/03 03:56:13;;;;;;;2.20;1.77;;;20.00;99.90;;;;;;4993297;28;20031;-73
2022/09/03 03:58:42;;;;;;;2.97;1.70;;;20.00;99.90;;;;;;4992417;28;20027;-73
2022/09/03 04:01:14;;;;;;;3.10;1.40;;;20.00;99.90;;;;;;4991735;28;20669;-73
2022/09/03 04:03:40;;;;;;;1.73;1.40;;;20.00;99.90;;;;;;4993576;28;20118;-73
2022/09/03 04:06:08;;;;;;;3.45;1.92;;;19.90;99.90;;;;;;4992720;28;20658;-72
2022/09/03 04:08:35;;;;;;;9.68;2.00;;;20.00;99.90;;;;;;4992167;28;20030;-73
2022/09/03 04:11:03;;;;;;;1.95;1.58;;;19.90;99.90;;;;;;4991681;28;20030;-73
2022/09/03 04:13:33;;;;;;;4.45;1.40;;;19.90;99.90;;;;;;4992181;28;20037;-73
2022/09/03 04:16:04;;;;;;;2.77;1.70;;;19.80;99.90;;;;;;4992390;28;20092;-73
2022/09/03 04:18:31;;;;;;;3.53;1.50;;;19.80;99.90;;;;;;4992070;28;20031;-73
2022/09/03 04:21:09;;;;;;;2.90;1.77;;;19.70;99.90;;;;;;4992240;28;20058;-73
2022/09/03 04:23:37;;;;;;;2.00;1.58;;;19.60;99.90;;;;;;4993277;28;20034;-73
2022/09/03 04:26:04;;;;;;;4.43;2.00;;;19.60;99.90;;;;;;4990968;28;20062;-74
2022/09/03 04:28:29;;;;;;;3.47;1.80;;;19.50;99.90;;;;;;4993192;28;20027;-73
2022/09/03 04:31:00;;;;;;;2.00;1.50;;;19.40;99.90;;;;;;4992488;28;20022;-74
2022/09/03 04:33:26;;;;;;;2.05;1.70;;;19.50;99.90;;;;;;4992210;28;20026;-74
2022/09/03 04:35:52;;;;;;;1.52;1.30;;;19.50;99.90;;;;;;4992763;28;20109;-75
2022/09/03 04:38:17;;;;;;;2.25;1.50;;;19.50;99.90;;;;;;4991996;28;20113;-74
2022/09/03 04:40:43;;;;;;;3.13;1.60;;;19.50;99.90;;;;;;4992884;28;20456;-74
2022/09/03 04:43:08;;;;;;;4.95;1.70;;;19.50;99.90;;;;;;4992986;28;20045;-75
2022/09/03 04:45:34;;;;;;;3.60;1.63;;;19.40;99.90;;;;;;4996675;28;20088;-74
2022/09/03 04:48:01;;;;;;;2.03;1.58;;;19.40;99.90;;;;;;4994964;28;20092;-75
2022/09/03 04:50:28;;;;;;;3.80;1.42;;;19.40;99.90;;;;;;4995590;28;20065;-74
2022/09/03 04:52:58;;;;;;;3.50;1.80;;;19.40;99.90;;;;;;4995087;28;20037;-76
2022/09/03 04:55:24;;;;;;;1.65;1.50;;;19.40;99.90;;;;;;4997206;28;20496;-74
2022/09/03 04:57:50;;;;;;;2.00;1.80;;;19.40;99.90;;;;;;4995453;28;20038;-74
2022/09/03 05:00:17;;;;;;;6.13;1.45;;;19.40;99.90;;;;;;4995273;28;20058;-74
2022/09/03 05:02:48;;;;;;;2.40;1.40;;;19.40;99.90;;;;;;4995529;28;20034;-74
2022/09/03 05:05:14;;;;;;;2.33;1.95;;;19.40;99.90;;;;;;4996287;28;20037;-74
2022/09/03 05:07:40;;;;;;;6.13;2.00;;;19.40;99.90;;;;;;4995564;28;20030;-74
2022/09/03 05:10:07;;;;;;;4.75;1.67;;;19.40;99.90;;;;;;4994881;28;20383;-74
2022/09/03 05:12:33;;;;;;;3.78;1.52;;;19.40;99.90;;;;;;4995494;28;20065;-74
2022/09/03 05:14:59;;;;;;;3.53;2.10;;;19.40;99.90;;;;;;4994296;28;20467;-74
2022/09/03 05:17:26;;;;;;;2.58;1.90;;;19.50;99.90;;;;;;4995651;28;20145;-74
2022/09/03 05:19:52;;;;;;;2.85;1.50;;;19.50;99.90;;;;;;4996383;28;20098;-76
2022/09/03 05:22:20;;;;;;;2.88;1.80;;;19.50;99.90;;;;;;4994608;28;20468;-74
2022/09/03 05:24:48;;;;;;;2.55;1.70;;;19.50;99.90;;;;;;4996321;28;20056;-74
2022/09/03 05:27:15;;;;;;;1.98;1.70;;;19.60;99.90;;;;;;4995702;28;20597;-74
2022/09/03 05:29:44;;;;;;;2.58;2.00;;;19.60;99.90;;;;;;4995267;28;20113;-74
2022/09/03 05:32:15;;;;;;;3.30;1.60;;;19.60;99.90;;;;;;4994261;28;20149;-74
2022/09/03 05:34:41;;;;;;;4.70;1.88;;;19.60;99.90;;;;;;4995132;28;20026;-74
2022/09/03 05:37:06;;;;;;;2.00;1.80;;;19.50;99.90;;;;;;4994338;28;20034;-74
2022/09/03 05:39:32;;;;;;;3.28;2.00;;;19.50;99.90;;;;;;4995308;28;20030;-73
2022/09/03 05:41:57;;;;;;;1.88;1.67;;;19.50;99.90;;;;;;4994147;28;20465;-73
2022/09/03 05:44:23;;;;;;;2.03;1.75;;;19.50;99.90;;;;;;4996257;28;20069;-73
2022/09/03 05:46:50;;;;;;;2.80;2.10;;;19.50;99.90;;;;;;4995921;28;20030;-73
2022/09/03 05:49:16;;;;;;;2.00;1.80;;;19.50;99.90;;;;;;4995182;28;20160;-73
2022/09/03 05:51:42;;;;;;;4.38;2.33;;;19.40;99.90;;;;;;4995879;28;20105;-73
2022/09/03 05:54:09;;;;;;;6.43;2.20;;;19.50;99.90;;;;;;4993631;28;20026;-73
2022/09/03 05:56:38;;;;;;;6.50;2.10;;;19.50;99.90;;;;;;4994552;28;20034;-73
2022/09/03 05:59:08;;;;;;;3.55;2.53;;;19.50;99.90;;;;;;4993536;28;20575;-73
2022/09/03 06:01:52;;;;;;;5.63;2.85;;;19.40;99.90;;;;;;4994396;28;20031;-73
2022/09/03 06:04:18;;;;;;;6.18;3.50;;;19.40;99.90;;;;;;4994868;28;20034;-73
2022/09/03 06:06:45;;;;;;;5.32;3.00;;;19.40;99.90;;;;;;4995435;28;20196;-74
2022/09/03 06:09:16;;;;;;;10.05;6.03;;;19.30;99.90;;;;;;4993579;28;20033;-74
2022/09/03 06:11:43;;;;;;;6.82;3.83;;;19.30;99.90;;;;;;4994500;28;20062;-74
2022/09/03 06:14:11;;;;;;;4.30;2.53;;;19.40;99.90;;;;;;4993539;28;20511;-72
2022/09/03 06:16:44;;;;;;;2.88;2.33;;;19.50;99.90;;;;;;4998510;28;20049;-74
2022/09/03 06:19:12;;;;;;;5.03;2.63;;;19.50;99.90;;;;;;5014399;28;20021;-74
2022/09/03 06:21:42;;;;;;;3.35;2.58;;;19.60;99.90;;;;;;5013752;28;20336;-73
2022/09/03 06:24:15;;;;;;;5.05;2.45;;;19.70;99.90;;;;;;5013003;28;20489;-74
2022/09/03 06:26:42;;;;;;;3.53;2.40;;;19.60;99.90;;;;;;5013614;28;20022;-74
2022/09/03 06:29:07;;;;;;;3.67;2.55;;;19.60;99.90;;;;;;5014009;28;20030;-74
2022/09/03 06:31:34;;;;;;;2.85;2.15;;;19.50;99.90;;;;;;5013414;28;20032;-74
2022/09/03 06:34:00;;;;;;;5.32;2.35;;;19.50;99.90;;;;;;5013976;28;20022;-75
2022/09/03 06:36:26;;;;;;;3.72;2.35;;;19.50;99.90;;;;;;5013515;28;20028;-73
2022/09/03 06:38:54;;;;;;;3.88;2.33;;;19.60;99.90;;;;;;5013439;28;20026;-73
2022/09/03 06:41:23;;;;;;;4.55;2.17;;;19.60;99.90;;;;;;5012429;28;20464;-73
2022/09/03 06:43:52;;;;;;;4.43;2.22;;;19.60;99.90;;;;;;5014364;28;20030;-74
2022/09/03 06:46:20;;;;;;;2.50;2.28;;;19.60;99.90;;;;;;5012411;28;20050;-74
2022/09/03 06:48:46;;;;;;;3.65;2.63;;;19.70;99.90;;;;;;5013113;28;20029;-74
2022/09/03 06:51:20;;;;;;;5.00;2.45;;;19.70;99.90;;;;;;5012650;28;20025;-74
2022/09/03 06:53:49;;;;;;;4.22;2.50;;;19.80;99.90;;;;;;5014589;28;20022;-74
2022/09/03 06:56:17;;;;;;;4.97;2.88;;;19.70;99.90;;;;;;5014225;28;20034;-74
2022/09/03 06:58:45;;;;;;;4.50;2.28;;;19.60;99.90;;;;;;5013209;28;20022;-74
2022/09/03 07:01:13;;;;;;;2.75;2.42;;;19.50;99.90;;;;;;5013392;28;20029;-73
2022/09/03 07:03:41;;;;;;;5.47;3.08;;;19.50;99.90;;;;;;5013169;28;20052;-74
2022/09/03 07:06:10;;;;;;;6.90;2.72;;;19.50;99.90;;;;;;5011988;28;20550;-74
2022/09/03 07:08:36;;;;;;;3.35;2.78;;;19.40;99.90;;;;;;5013046;28;20478;-74
2022/09/03 07:11:07;;;;;;;6.53;3.10;;;19.40;99.90;;;;;;5012444;28;20395;-74
2022/09/03 07:13:43;;;;;;;4.93;3.50;;;19.30;99.90;;;;;;5013173;28;20061;-74
2022/09/03 07:16:11;;;;;;;4.95;2.78;;;19.30;99.90;;;;;;5012059;28;20084;-74
2022/09/03 07:18:38;;;;;;;4.18;3.15;;;19.30;99.90;;;;;;5014236;28;20458;-74
2022/09/03 07:21:06;;;;;;;6.45;3.40;;;19.30;99.90;;;;;;5013315;28;20025;-74
2022/09/03 07:23:32;;;;;;;6.28;4.13;;;19.20;99.90;;;;;;5012727;28;20482;-74
2022/09/03 07:26:07;;;;;;;8.25;3.70;;;19.20;99.90;;;;;;5012681;28;20103;-74
2022/09/03 07:28:38;;;;;;;6.53;3.60;;;19.20;99.90;;;;;;5012792;28;20164;-74
2022/09/03 07:31:13;;;;;;;7.40;3.33;;;19.20;99.90;;;;;;5012001;28;20478;-75
2022/09/03 07:33:40;;;;;;;4.97;3.20;;;19.20;99.90;;;;;;5013738;28;20033;-74
2022/09/03 07:36:08;;;;;;;4.55;3.55;;;19.20;99.90;;;;;;5013014;28;20022;-75
2022/09/03 07:38:35;;;;;;;4.97;2.90;;;19.20;99.90;;;;;;5012591;28;20486;-75
2022/09/03 07:41:03;;;;;;;7.38;3.35;;;19.20;99.90;;;;;;5011776;28;20026;-76
2022/09/03 07:43:32;;;;;;;5.68;3.30;;;19.30;99.90;;;;;;5013324;28;20471;-74
2022/09/03 07:46:00;;;;;;;5.57;3.15;;;19.10;99.90;;;;;;5012269;28;20357;-74
2022/09/03 07:48:26;;;;;;;4.88;3.30;;;19.00;99.90;;;;;;5013580;28;20114;-74
2022/09/03 07:50:58;;;;;;;4.43;3.08;;;19.00;99.90;;;;;;5013504;28;20025;-74
2022/09/03 07:53:24;;;;;;;4.15;3.08;;;19.00;99.90;;;;;;5012946;28;20030;-74
2022/09/03 07:55:50;;;;;;;4.88;3.35;;;19.00;99.90;;;;;;5013119;28;20390;-74
2022/09/03 07:58:16;;;;;;;5.68;3.78;;;18.90;99.90;;;;;;5011401;28;20034;-74
2022/09/03 08:00:42;;;;;;;7.07;3.97;;;18.90;99.90;;;;;;5011787;28;20026;-74
2022/09/03 08:03:08;;;;;;;6.00;3.53;;;18.90;99.90;;;;;;5011396;28;20173;-75
2022/09/03 08:05:35;;;;;;;5.93;3.75;;;18.80;99.90;;;;;;5013019;28;20037;-73
2022/09/03 08:08:02;;;;;;;6.55;3.85;;;18.80;99.90;;;;;;5012487;28;20022;-76
2022/09/03 08:10:29;;;;;;;10.07;4.25;;;18.80;99.90;;;;;;5012902;28;20101;-74
2022/09/03 08:12:56;;;;;;;8.27;3.97;;;18.80;99.90;;;;;;5011859;28;20029;-74
2022/09/03 08:15:22;;;;;;;6.45;4.30;;;18.80;99.90;;;;;;5010779;28;20046;-75
2022/09/03 08:17:48;;;;;;;8.93;3.75;;;18.90;99.90;;;;;;5011704;28;20429;-75
2022/09/03 08:20:14;;;;;;;6.50;4.03;;;18.90;99.90;;;;;;5011927;28;20028;-74
2022/09/03 08:22:40;;;;;;;7.35;3.78;;;19.00;99.90;;;;;;5011548;28;20030;-73
2022/09/03 08:25:06;;;;;;;4.82;3.50;;;19.10;99.90;;;;;;5012368;28;20041;-74
2022/09/03 08:27:32;;;;;;;4.90;3.55;;;19.00;99.90;;;;;;5013300;28;20045;-74
2022/09/03 08:29:58;;;;;;;6.30;3.83;;;19.00;99.90;;;;;;5011706;28;20038;-74
2022/09/03 08:32:23;;;;;;;5.15;3.15;;;19.00;99.90;;;;;;5010922;28;20060;-74
2022/09/03 08:34:51;;;;;;;7.22;3.30;;;19.10;99.90;;;;;;5011775;28;20022;-74
2022/09/03 08:37:17;;;;;;;4.90;3.10;;;19.10;99.90;;;;;;5010542;28;20033;-74
2022/09/03 08:39:43;;;;;;;4.50;3.13;;;19.30;99.90;;;;;;5011769;28;20033;-74
2022/09/03 08:42:15;;;;;;;9.15;3.53;;;19.40;99.90;;;;;;5011234;28;20029;-73
2022/09/03 08:45:06;;;;;;;7.20;3.30;;;19.60;99.90;;;;;;5010841;28;20025;-74
2022/09/03 08:48:17;;;;;;;5.53;3.73;;;19.60;99.90;;;;;;5009114;28;20029;-73
2022/09/03 08:50:50;;;;;;;7.43;3.83;;;19.70;99.90;;;;;;4970560;28;20038;-76
2022/09/03 08:53:30;;;;;;;7.70;4.65;;;19.70;99.90;;;;;;4970452;28;20045;-74
2022/09/03 08:56:04;;;;;;;6.95;3.80;;;19.80;99.90;;;;;;4970990;28;20041;-73
2022/09/03 08:58:51;;;;;;;6.47;4.18;;;19.90;99.90;;;;;;4969998;28;20031;-74
2022/09/03 09:01:56;;;;;;;5.57;3.97;;;20.00;99.90;;;;;;4969763;28;20039;-73
2022/09/03 09:04:36;;;;;;;6.13;3.95;;;20.10;99.90;;;;;;4970330;28;20125;-74
2022/09/03 09:07:20;;;;;;;6.40;3.53;;;20.10;99.90;;;;;;4971057;28;20496;-74
2022/09/03 09:10:07;;;;;;;6.70;3.90;;;20.10;99.90;;;;;;4954934;28;20027;-73
2022/09/03 09:12:44;;;;;;;6.93;4.03;;;20.10;99.90;;;;;;4971114;28;20115;-73
2022/09/03 09:15:26;;;;;;;4.88;3.92;;;20.00;99.90;;;;;;4970299;28;20071;-73
2022/09/03 09:18:00;;;;;;;5.88;3.90;;;20.00;99.90;;;;;;4971079;28;20074;-73
2022/09/03 09:20:56;;;;;;;7.20;4.57;;;20.00;99.90;;;;;;4972786;28;20109;-77
2022/09/03 09:23:42;;;;;;;7.10;3.88;;;19.90;99.90;;;;;;5009267;28;20045;-77
2022/09/03 09:26:13;;;;;;;6.47;4.35;;;19.80;99.90;;;;;;5011355;28;20087;-78
2022/09/03 09:28:38;;;;;;;5.65;4.13;;;19.70;99.90;;;;;;4996787;28;20088;-76
2022/09/03 09:31:08;;;;;;;8.50;4.68;;;19.70;99.90;;;;;;5013685;28;20179;-74
2022/09/03 09:33:35;;;;;;;7.63;4.60;;;19.70;99.90;;;;;;5014835;28;20541;-76
2022/09/03 09:36:05;;;;;;;8.25;4.75;;;19.80;99.90;;;;;;5014966;28;20022;-77
2022/09/03 09:38:35;;;;;;;6.15;4.55;;;19.80;99.90;;;;;;5009097;28;20030;-76
2022/09/03 09:41:19;;;;;;;8.88;4.07;;;19.80;99.90;;;;;;5010875;28;20478;-77
2022/09/03 09:43:48;;;;;;;5.70;4.30;;;19.90;99.90;;;;;;5013651;28;20485;-77
2022/09/03 09:46:22;;;;;;;7.32;4.90;;;20.10;99.90;;;;;;5014588;28;20037;-78
2022/09/03 09:48:53;;;;;;;5.57;3.90;;;20.20;99.90;;;;;;5012112;28;20026;-78
2022/09/03 09:51:31;;;;;;;7.72;4.15;;;20.30;99.90;;;;;;5006940;28;20018;-76
2022/09/03 09:54:18;;;;;;;7.85;4.72;;;20.40;99.90;;;;;;5014786;28;20072;-77
2022/09/03 09:56:45;;;;;;;5.03;3.75;;;20.60;99.90;;;;;;5006621;28;20068;-77
2022/09/03 09:59:13;;;;;;;6.38;4.30;;;20.70;99.90;;;;;;5010943;28;20034;-77
2022/09/03 10:01:41;;;;;;;5.10;4.20;;;20.80;99.90;;;;;;5010518;28;20034;-76
2022/09/03 10:04:28;;;;;;;6.20;4.28;;;20.90;99.90;;;;;;5005083;28;20083;-77
2022/09/03 10:06:57;;;;;;;6.75;4.07;;;21.00;99.90;;;;;;5009397;28;20383;-75
2022/09/03 10:09:29;;;;;;;6.25;4.57;;;21.00;99.90;;;;;;5010610;28;20018;-76
2022/09/03 10:12:23;;;;;;;6.13;4.40;;;20.90;99.90;;;;;;5010864;28;20033;-78
2022/09/03 10:15:07;;;;;;;5.70;4.20;;;20.90;99.90;;;;;;5011270;28;20046;-74
2022/09/03 10:17:55;;;;;;;4.43;3.60;;;20.90;99.90;;;;;;5009648;28;20065;-76
2022/09/03 10:20:50;;;;;;;5.45;3.83;;;20.90;99.90;;;;;;5007650;28;20021;-76
2022/09/03 10:23:27;;;;;;;5.43;3.58;;;21.00;99.90;;;;;;5012252;28;20018;-77
2022/09/03 10:26:06;;;;;;;6.78;4.00;;;21.20;99.90;;;;;;5010413;28;20080;-77
2022/09/03 10:28:39;;;;;;;7.68;4.10;;;21.40;99.90;;;;;;5011695;28;20029;-75
2022/09/03 10:31:43;;;;;;;5.97;3.92;;;21.40;99.90;;;;;;5011422;28;20076;-76
2022/09/03 10:34:36;;;;;;;4.07;3.25;;;21.40;99.90;;;;;;4998814;28;20027;-73
2022/09/03 10:37:20;;;;;;;4.40;3.63;;;21.40;99.90;;;;;;5007975;28;20038;-73
2022/09/03 10:40:14;;;;;;;6.43;3.92;;;21.40;99.90;;;;;;5005504;28;20102;-74
2022/09/03 10:42:55;;;;;;;6.18;4.50;;;21.50;99.90;;;;;;5002744;28;20033;-75
2022/09/03 10:45:49;;;;;;;6.18;4.75;;;21.50;99.90;;;;;;5012023;28;20037;-75
2022/09/03 10:48:45;;;;;;;12.82;4.63;;;21.40;99.90;;;;;;5011296;28;20493;-74
2022/09/03 10:51:17;;;;;;;5.80;4.70;;;21.30;99.90;;;;;;5007991;28;20066;-73
2022/09/03 10:54:07;;;;;;;11.75;4.85;;;21.50;99.90;;;;;;5013835;28;20030;-74
2022/09/03 10:56:59;;;;;;;6.10;4.72;;;21.50;99.90;;;;;;4996390;28;20056;-74
2022/09/03 10:59:34;;;;;;;8.55;4.80;;;21.70;99.90;;;;;;5004562;28;20069;-75
2022/09/03 11:02:03;;;;;;;5.63;4.32;;;21.70;99.90;;;;;;5006906;28;20467;-74
2022/09/03 11:04:58;;;;;;;5.82;4.85;;;21.50;99.90;;;;;;4996284;28;20125;-74
2022/09/03 11:07:34;;;;;;;6.72;4.80;;;21.40;99.90;;;;;;4988301;28;20150;-74
2022/09/03 11:10:11;;;;;;;6.45;4.95;;;21.30;99.90;;;;;;4996275;28;20117;-73
2022/09/03 11:12:57;;;;;;;6.28;4.72;;;21.40;99.90;;;;;;5010188;28;20033;-73
2022/09/03 11:15:37;;;;;;;6.43;4.82;;;21.40;99.90;;;;;;4999941;28;20502;-75
2022/09/03 11:18:11;;;;;;;8.88;5.07;;;21.60;99.90;;;;;;5012495;28;20092;-72
2022/09/03 11:20:39;;;;;;;8.60;5.43;;;21.70;99.90;;;;;;5010185;28;20025;-72
2022/09/03 11:23:06;;;;;;;7.07;4.90;;;21.70;99.90;;;;;;5012940;28;20087;-73
2022/09/03 11:25:40;;;;;;;7.40;4.95;;;21.60;99.90;;;;;;5002669;28;20530;-73
2022/09/03 11:28:19;;;;;;;7.60;5.18;;;21.50;99.90;;;;;;5007234;28;20030;-74
2022/09/03 11:31:03;;;;;;;7.57;4.63;;;21.50;99.90;;;;;;4997127;28;20553;-74
2022/09/03 11:33:31;;;;;;;7.45;4.78;;;21.40;99.90;;;;;;5003349;28;20527;-74
2022/09/03 11:35:59;;;;;;;5.57;4.40;;;21.40;99.90;;;;;;5005088;28;20026;-75
2022/09/03 11:38:29;;;;;;;6.57;5.18;;;21.40;99.90;;;;;;4995715;28;20450;-74
2022/09/03 11:41:21;;;;;;;7.57;5.72;;;21.40;99.90;;;;;;4996525;28;20054;-73
2022/09/03 11:43:47;;;;;;;215.50;100.80;;;21.30;99.90;;;;;;5001978;28;20171;-81
2022/09/03 11:46:27;;;;;;;22.05;14.02;;;21.30;99.90;;;;;;5013255;28;20121;-75
2022/09/03 11:48:54;;;;;;;12.18;7.72;;;21.30;99.90;;;;;;4997774;28;20018;-76
2022/09/03 11:51:28;;;;;;;6.80;5.82;;;21.30;99.90;;;;;;5011519;28;20034;-78
2022/09/03 11:54:00;;;;;;;8.90;6.18;;;21.30;99.90;;;;;;5008862;28;20042;-78
2022/09/03 11:56:27;;;;;;;8.05;5.45;;;21.30;99.90;;;;;;5010550;28;20022;-75
2022/09/03 11:59:25;;;;;;;6.78;5.07;;;21.50;99.90;;;;;;5010298;28;20018;-74
2022/09/03 12:02:18;;;;;;;6.60;5.30;;;21.70;99.90;;;;;;4998096;28;20038;-78
2022/09/03 12:05:22;;;;;;;6.63;5.20;;;21.70;99.90;;;;;;5006940;28;20178;-76
2022/09/03 12:07:47;;;;;;;7.72;5.35;;;21.70;99.90;;;;;;4994984;28;20113;-74
2022/09/03 12:10:38;;;;;;;7.53;5.20;;;21.80;99.90;;;;;;5005804;28;20113;-75
2022/09/03 12:13:15;;;;;;;7.82;5.20;;;21.80;99.90;;;;;;4996805;28;20036;-73
2022/09/03 12:16:22;;;;;;;7.00;4.97;;;21.90;99.90;;;;;;4995504;28;20050;-74
2022/09/03 12:18:51;;;;;;;7.47;5.32;;;22.20;99.90;;;;;;5010100;28;20062;-74
2022/09/03 12:21:17;;;;;;;6.80;5.10;;;22.40;99.90;;;;;;5003421;28;20061;-74
2022/09/03 12:23:51;;;;;;;8.43;6.15;;;22.40;99.90;;;;;;5002102;28;20112;-75
2022/09/03 12:26:26;;;;;;;6.75;4.97;;;22.50;99.90;;;;;;4995836;28;20030;-74
2022/09/03 12:28:57;;;;;;;9.43;5.50;;;22.60;99.90;;;;;;4999948;28;20023;-74
2022/09/03 12:31:28;;;;;;;;;;;22.70;99.90;;;;;;4998733;28;20038;-75
2022/09/03 12:34:06;;;;;;;7.57;4.13;;;22.70;99.90;;;;;;5005579;28;19909;-74
2022/09/03 12:36:43;;;;;;;5.22;4.53;;;22.90;99.90;;;;;;5005821;28;20040;-75
2022/09/03 12:39:22;;;;;;;7.30;4.80;;;23.30;99.90;;;;;;5006891;28;20476;-74
2022/09/03 12:41:55;;;;;;;5.15;4.40;;;23.50;99.90;;;;;;5002613;28;20602;-73
2022/09/03 12:44:52;;;;;;;6.65;4.50;;;23.60;99.90;;;;;;4995355;28;20022;-75
2022/09/03 12:47:20;;;;;;;6.53;4.43;;;23.60;99.90;;;;;;5002923;28;20049;-75
2022/09/03 12:49:49;;;;;;;5.95;4.75;;;23.30;99.90;;;;;;5004350;28;20026;-74
2022/09/03 12:52:14;;;;;;;6.22;4.93;;;23.10;99.90;;;;;;4995427;28;20042;-75
2022/09/03 12:54:57;;;;;;;5.50;4.50;;;22.90;99.90;;;;;;5008828;28;20037;-76
2022/09/03 12:57:43;;;;;;;6.38;4.10;;;22.80;99.90;;;;;;4998425;28;20034;-76
2022/09/03 13:00:13;;;;;;;5.43;4.65;;;22.80;99.90;;;;;;4998535;28;20502;-76
2022/09/03 13:02:50;;;;;;;4.95;4.13;;;23.10;99.90;;;;;;5007433;28;20066;-76
2022/09/03 13:05:23;;;;;;;6.32;4.10;;;23.80;99.90;;;;;;5005798;28;20451;-78
2022/09/03 13:07:54;;;;;;;5.03;4.00;;;24.50;99.90;;;;;;5007764;28;20104;-75
2022/09/03 13:10:33;;;;;;;4.05;3.35;;;25.20;99.90;;;;;;5000226;28;20026;-75
2022/09/03 13:13:02;;;;;;;4.47;3.55;;;25.80;99.90;;;;;;4999759;28;20087;-76
2022/09/03 13:15:29;;;;;;;4.80;3.50;;;26.00;99.90;;;;;;5005574;28;20137;-75
2022/09/03 13:18:03;;;;;;;4.72;3.78;;;25.70;99.90;;;;;;5007365;28;20037;-77